Time;durP1;ratioP1;P1;durP2;ratioP2;P2;SDS_P1;SDS_P2;PMS_P1;PMS_P2;Temp;Humidity;BMP_temperature;BMP_pressure;BME280_temperature;BME280_humidity;BME280_pressure;Samples;Min_cycle;Max_cycle;Signal;HPM_P1;HPM_P2
2020/12/19 00:02:14;;;;;;;8;4;;;;;;;;;;;;;
2020/12/19 00:04:39;;;;;;;5.5;3;;;;;;;;;;;;;
2020/12/19 00:07:04;;;;;;;3;2.4;;;;;;;;;;;;;
2020/12/19 00:09:29;;;;;;;3;2.4;;;;;;;;;;;;;
2020/12/19 00:11:55;;;;;;;5.3;2.9;;;;;;;;;;;;;
2020/12/19 00:14:20;;;;;;;5.7;2.4;;;;;;;;;;;;;
2020/12/19 00:16:46;;;;;;;4.8;2.7;;;;;;;;;;;;;
2020/12/19 00:19:11;;;;;;;4.6;2.2;;;;;;;;;;;;;
2020/12/19 00:21:38;;;;;;;2.5;2;;;;;;;;;;;;;
2020/12/19 00:24:03;;;;;;;3.4;2.1;;;;;;;;;;;;;
2020/12/19 00:26:29;;;;;;;4.1;2.1;;;;;;;;;;;;;
2020/12/19 00:28:54;;;;;;;4.5;2.3;;;;;;;;;;;;;
2020/12/19 00:31:20;;;;;;;3.3;1.5;;;;;;;;;;;;;
2020/12/19 00:33:45;;;;;;;4.5;2.3;;;;;;;;;;;;;
2020/12/19 00:36:10;;;;;;;6.7;2.7;;;;;;;;;;;;;
2020/12/19 00:38:35;;;;;;;3.6;2;;;;;;;;;;;;;
2020/12/19 00:41:00;;;;;;;2.1;1.7;;;;;;;;;;;;;
2020/12/19 00:43:25;;;;;;;4.3;1.7;;;;;;;;;;;;;
2020/12/19 00:45:51;;;;;;;2.4;1.5;;;;;;;;;;;;;
2020/12/19 00:48:16;;;;;;;2.3;1.3;;;;;;;;;;;;;
2020/12/19 00:50:41;;;;;;;3.2;1.9;;;;;;;;;;;;;
2020/12/19 00:53:06;;;;;;;4.9;2.6;;;;;;;;;;;;;
2020/12/19 00:55:31;;;;;;;5.2;1.9;;;;;;;;;;;;;
2020/12/19 00:57:56;;;;;;;4.2;1.4;;;;;;;;;;;;;
2020/12/19 01:00:21;;;;;;;6.2;2.3;;;;;;;;;;;;;
2020/12/19 01:02:47;;;;;;;2.2;1.6;;;;;;;;;;;;;
2020/12/19 01:05:12;;;;;;;5.5;2.4;;;;;;;;;;;;;
2020/12/19 01:07:37;;;;;;;3.6;1.7;;;;;;;;;;;;;
2020/12/19 01:10:03;;;;;;;1.3;1.2;;;;;;;;;;;;;
2020/12/19 01:12:28;;;;;;;2.1;1.6;;;;;;;;;;;;;
2020/12/19 01:14:53;;;;;;;4;1.8;;;;;;;;;;;;;
2020/12/19 01:17:18;;;;;;;2.6;1.4;;;;;;;;;;;;;
2020/12/19 01:19:43;;;;;;;1.1;1;;;;;;;;;;;;;
2020/12/19 01:22:08;;;;;;;1.6;1.4;;;;;;;;;;;;;
2020/12/19 01:24:33;;;;;;;1.7;1.3;;;;;;;;;;;;;
2020/12/19 01:26:58;;;;;;;6.3;1.4;;;;;;;;;;;;;
2020/12/19 01:29:24;;;;;;;4.8;1.5;;;;;;;;;;;;;
2020/12/19 01:31:49;;;;;;;1.9;1;;;;;;;;;;;;;
2020/12/19 01:34:14;;;;;;;0.7;0.7;;;;;;;;;;;;;
2020/12/19 01:36:40;;;;;;;3.4;1;;;;;;;;;;;;;
2020/12/19 01:39:05;;;;;;;2.5;1.5;;;;;;;;;;;;;
2020/12/19 01:41:31;;;;;;;1.6;1.2;;;;;;;;;;;;;
2020/12/19 01:43:57;;;;;;;1.7;1.4;;;;;;;;;;;;;
2020/12/19 01:46:22;;;;;;;1.5;1;;;;;;;;;;;;;
2020/12/19 01:48:48;;;;;;;1.5;1.1;;;;;;;;;;;;;
2020/12/19 01:51:13;;;;;;;5.9;1.4;;;;;;;;;;;;;
2020/12/19 01:53:40;;;;;;;1.5;1.3;;;;;;;;;;;;;
2020/12/19 01:56:05;;;;;;;0.7;0.7;;;;;;;;;;;;;
2020/12/19 01:58:32;;;;;;;2.1;1.3;;;;;;;;;;;;;
2020/12/19 02:00:57;;;;;;;2.1;1.3;;;;;;;;;;;;;
2020/12/19 02:03:23;;;;;;;4.1;1.6;;;;;;;;;;;;;
2020/12/19 02:05:48;;;;;;;2.6;1.2;;;;;;;;;;;;;
2020/12/19 02:08:14;;;;;;;1.4;1.2;;;;;;;;;;;;;
2020/12/19 02:10:39;;;;;;;2.6;1;;;;;;;;;;;;;
2020/12/19 02:13:05;;;;;;;1.5;1.2;;;;;;;;;;;;;
2020/12/19 02:15:30;;;;;;;2.5;1.4;;;;;;;;;;;;;
2020/12/19 02:17:55;;;;;;;1.1;1;;;;;;;;;;;;;
2020/12/19 02:20:20;;;;;;;1.1;1;;;;;;;;;;;;;
2020/12/19 02:22:45;;;;;;;1.9;1.3;;;;;;;;;;;;;
2020/12/19 02:25:10;;;;;;;1.6;1;;;;;;;;;;;;;
2020/12/19 02:27:36;;;;;;;3;1.7;;;;;;;;;;;;;
2020/12/19 02:30:01;;;;;;;1.8;1.3;;;;;;;;;;;;;
2020/12/19 02:32:26;;;;;;;1.5;1;;;;;;;;;;;;;
2020/12/19 02:34:53;;;;;;;2.7;1.3;;;;;;;;;;;;;
2020/12/19 02:37:18;;;;;;;4.4;1.5;;;;;;;;;;;;;
2020/12/19 02:39:43;;;;;;;7.3;1;;;;;;;;;;;;;
2020/12/19 02:42:09;;;;;;;2.8;1.4;;;;;;;;;;;;;
2020/12/19 02:44:35;;;;;;;1.6;0.8;;;;;;;;;;;;;
2020/12/19 02:47:00;;;;;;;2.1;0.9;;;;;;;;;;;;;
2020/12/19 02:49:26;;;;;;;2.5;1.3;;;;;;;;;;;;;
2020/12/19 02:51:51;;;;;;;1.5;1.3;;;;;;;;;;;;;
2020/12/19 02:54:18;;;;;;;3.3;1.6;;;;;;;;;;;;;
2020/12/19 02:56:43;;;;;;;3.9;2;;;;;;;;;;;;;
2020/12/19 02:59:09;;;;;;;3.5;1.7;;;;;;;;;;;;;
2020/12/19 03:01:34;;;;;;;2.6;1.7;;;;;;;;;;;;;
2020/12/19 03:04:00;;;;;;;5.9;1.9;;;;;;;;;;;;;
2020/12/19 03:06:25;;;;;;;1.3;0.9;;;;;;;;;;;;;
2020/12/19 03:08:50;;;;;;;3.3;1.1;;;;;;;;;;;;;
2020/12/19 03:11:15;;;;;;;1;0.8;;;;;;;;;;;;;
2020/12/19 03:13:40;;;;;;;1.2;1.1;;;;;;;;;;;;;
2020/12/19 03:16:06;;;;;;;0.9;0.8;;;;;;;;;;;;;
2020/12/19 03:18:31;;;;;;;2.1;1.4;;;;;;;;;;;;;
2020/12/19 03:20:56;;;;;;;1.3;1.1;;;;;;;;;;;;;
2020/12/19 03:23:21;;;;;;;0.9;0.7;;;;;;;;;;;;;
2020/12/19 03:25:49;;;;;;;1.1;1;;;;;;;;;;;;;
2020/12/19 03:28:12;;;;;;;2.1;1.6;;;;;;;;;;;;;
2020/12/19 03:30:39;;;;;;;2.3;1.4;;;;;;;;;;;;;
2020/12/19 03:33:04;;;;;;;3;1.5;;;;;;;;;;;;;
2020/12/19 03:35:33;;;;;;;1.2;1;;;;;;;;;;;;;
2020/12/19 03:37:56;;;;;;;1.6;0.9;;;;;;;;;;;;;
2020/12/19 03:40:23;;;;;;;0.6;0.6;;;;;;;;;;;;;
2020/12/19 03:42:48;;;;;;;1.4;0.8;;;;;;;;;;;;;
2020/12/19 03:45:14;;;;;;;0.4;0.3;;;;;;;;;;;;;
2020/12/19 03:47:39;;;;;;;1.8;1.1;;;;;;;;;;;;;
2020/12/19 03:50:04;;;;;;;1.2;0.9;;;;;;;;;;;;;
2020/12/19 03:52:29;;;;;;;1.3;1;;;;;;;;;;;;;
2020/12/19 03:54:55;;;;;;;1.8;1;;;;;;;;;;;;;
2020/12/19 03:57:20;;;;;;;1.2;1;;;;;;;;;;;;;
2020/12/19 03:59:46;;;;;;;4.7;0.9;;;;;;;;;;;;;
2020/12/19 04:02:30;;;;;;;0.5;0.5;;;;;;;0.3;79.59277;941.2806;;;;
2020/12/19 04:04:55;;;;;;;0.7;0.6;;;;;;;0.19;80.43945;941.243;;;;
2020/12/19 04:07:21;;;;;;;1.1;0.9;;;;;;;0.22;80.2666;941.2661;;;;
2020/12/19 04:09:47;;;;;;;1.4;1;;;;;;;0.11;80.6709;941.3621;;;;
2020/12/19 04:12:13;;;;;;;3.4;1.4;;;;;;;0.1;80.82324;941.2924;;;;
2020/12/19 04:14:39;;;;;;;3.6;1;;;;;;;0.09;81.3584;941.3117;;;;
2020/12/19 04:17:07;;;;;;;0.6;0.6;;;;;;;-0.11;81.62988;941.3318;;;;
2020/12/19 04:19:32;;;;;;;3.2;1.2;;;;;;;-0.27;82.47852;941.3172;;;;
2020/12/19 04:22:00;;;;;;;0.8;0.8;;;;;;;-0.28;82.91113;941.265;;;;
2020/12/19 04:24:25;;;;;;;0.8;0.8;;;;;;;-0.24;83.08691;941.2919;;;;
2020/12/19 04:26:52;;;;;;;1;0.8;;;;;;;-0.23;83.18848;941.2947;;;;
2020/12/19 04:29:17;;;;;;;1.1;1;;;;;;;-0.17;82.85547;941.2645;;;;
2020/12/19 04:31:45;;;;;;;1.6;0.8;;;;;;;0;82.36621;941.2214;;;;
2020/12/19 04:34:10;;;;;;;1.4;0.7;;;;;;;0.01;82.05566;941.2297;;;;
2020/12/19 04:36:37;;;;;;;0.5;0.5;;;;;;;-0.09;82.15723;941.2388;;;;
2020/12/19 04:39:02;;;;;;;0.8;0.6;;;;;;;-0.02;81.89453;941.2673;;;;
2020/12/19 04:41:29;;;;;;;0.8;0.6;;;;;;;-0.02;81.99316;941.2169;;;;
2020/12/19 04:43:55;;;;;;;1.2;0.7;;;;;;;-0.01;81.77246;941.1986;;;;
2020/12/19 04:46:22;;;;;;;0.9;0.6;;;;;;;-0.11;82.05371;941.2145;;;;
2020/12/19 04:48:47;;;;;;;2.5;0.9;;;;;;;-0.08;81.73535;941.2347;;;;
2020/12/19 04:51:15;;;;;;;0.5;0.5;;;;;;;-0.24;82.51855;941.1764;;;;
2020/12/19 04:53:40;;;;;;;0.8;0.4;;;;;;;-0.29;82.5752;941.1596;;;;
2020/12/19 04:56:06;;;;;;;1.4;0.8;;;;;;;-0.22;82.59082;941.2162;;;;
2020/12/19 04:58:31;;;;;;;1.7;0.9;;;;;;;-0.21;82.39063;941.2328;;;;
2020/12/19 05:00:59;;;;;;;5.5;2.3;;;;;;;-0.3;82.34082;941.2313;;;;
2020/12/19 05:03:24;;;;;;;4.8;1.9;;;;;;;-0.26;82.35938;941.2297;;;;
2020/12/19 05:05:51;;;;;;;12;5.1;;;;;;;-0.36;82.7627;941.1601;;;;
2020/12/19 05:08:16;;;;;;;2.9;2.3;;;;;;;-0.4;82.97656;941.1942;;;;
2020/12/19 05:10:45;;;;;;;3.8;2.2;;;;;;;-0.44;82.76758;941.3005;;;;
2020/12/19 05:13:10;;;;;;;3.9;2.3;;;;;;;-0.54;83.76074;941.1724;;;;
2020/12/19 05:15:37;;;;;;;3.8;1.8;;;;;;;-0.55;84.49414;941.3134;;;;
2020/12/19 05:18:02;;;;;;;2.6;1.6;;;;;;;-0.37;84.08594;941.244;;;;
2020/12/19 05:20:29;;;;;;;4.8;2.2;;;;;;;-0.19;83.33105;941.2714;;;;
2020/12/19 05:22:54;;;;;;;1.9;1.6;;;;;;;-0.04;82.39063;941.2447;;;;
2020/12/19 05:25:19;;;;;;;2.4;1.7;;;;;;;0.02;81.77734;941.252;;;;
2020/12/19 05:27:44;;;;;;;2;1.7;;;;;;;-0.14;82.34863;941.2667;;;;
2020/12/19 05:30:09;;;;;;;2.6;1.7;;;;;;;-0.17;82.75586;941.2584;;;;
2020/12/19 05:32:36;;;;;;;3.2;1.9;;;;;;;-0.17;82.7998;941.1517;;;;
2020/12/19 05:35:01;;;;;;;5.5;2.4;;;;;;;-0.12;82.6084;941.2121;;;;
2020/12/19 05:37:27;;;;;;;2.2;1.8;;;;;;;-0.07;82.24023;941.2173;;;;
2020/12/19 05:39:52;;;;;;;5;2.7;;;;;;;-0.12;82.24121;941.1417;;;;
2020/12/19 05:42:17;;;;;;;4.5;2.2;;;;;;;-0.29;82.58594;941.1925;;;;
2020/12/19 05:44:43;;;;;;;3.2;1.7;;;;;;;-0.42;82.98438;941.2;;;;
2020/12/19 05:47:08;;;;;;;2;1.6;;;;;;;-0.56;83.69141;941.2497;;;;
2020/12/19 05:49:33;;;;;;;2.6;1.4;;;;;;;-0.61;84.08105;941.1934;;;;
2020/12/19 05:51:58;;;;;;;2.4;1.8;;;;;;;-0.57;84.48926;941.1825;;;;
2020/12/19 05:54:25;;;;;;;8.4;4.1;;;;;;;-0.43;83.86133;941.2106;;;;
2020/12/19 05:56:50;;;;;;;8.9;3.2;;;;;;;-0.52;83.8877;941.176;;;;
2020/12/19 05:59:16;;;;;;;1.8;1.4;;;;;;;-0.57;84.02148;941.1881;;;;
2020/12/19 06:01:41;;;;;;;4.5;2;;;;;;;-0.69;84.73438;941.2189;;;;
2020/12/19 06:04:07;;;;;;;2.8;1.9;;;;;;;-0.56;84.2793;941.1728;;;;
2020/12/19 06:06:33;;;;;;;2.9;1.8;;;;;;;-0.51;84.09961;941.2178;;;;
2020/12/19 06:08:59;;;;;;;2.4;1.6;;;;;;;-0.58;83.85352;941.2195;;;;
2020/12/19 06:11:24;;;;;;;2.1;1.1;;;;;;;-0.72;84.77148;941.1271;;;;
2020/12/19 06:13:49;;;;;;;2;1.4;;;;;;;-0.79;85.12402;941.2254;;;;
2020/12/19 06:16:14;;;;;;;2.8;2;;;;;;;-0.76;84.97559;941.2;;;;
2020/12/19 06:18:40;;;;;;;1.8;1.4;;;;;;;-0.64;84.65234;941.2189;;;;
2020/12/19 06:21:06;;;;;;;1.7;1.6;;;;;;;-0.63;84.71191;941.105;;;;
2020/12/19 06:23:31;;;;;;;1.4;1.2;;;;;;;-0.54;84.59473;941.153;;;;
2020/12/19 06:25:58;;;;;;;0.8;0.8;;;;;;;-0.36;83.71973;941.1883;;;;
2020/12/19 06:28:23;;;;;;;3;2.1;;;;;;;-0.33;83.24707;941.1608;;;;
2020/12/19 06:30:48;;;;;;;4.6;2.4;;;;;;;-0.45;83.35742;941.2058;;;;
2020/12/19 06:33:14;;;;;;;5.1;2.5;;;;;;;-0.56;83.8916;941.2074;;;;
2020/12/19 06:35:39;;;;;;;7.7;3;;;;;;;-0.55;84.12695;941.1211;;;;
2020/12/19 06:38:04;;;;;;;6.5;2.6;;;;;;;-0.46;83.84277;941.1746;;;;
2020/12/19 06:40:29;;;;;;;7.5;2.7;;;;;;;;;;;;;
2020/12/19 06:42:55;;;;;;;2.9;2.1;;;;;;;;;;;;;
2020/12/19 06:45:20;;;;;;;2.9;1.8;;;;;;;;;;;;;
2020/12/19 06:47:45;;;;;;;2.3;1.3;;;;;;;;;;;;;
2020/12/19 06:50:11;;;;;;;1.9;1.4;;;;;;;;;;;;;
2020/12/19 06:52:36;;;;;;;3.6;1.7;;;;;;;;;;;;;
2020/12/19 06:55:01;;;;;;;2;1.3;;;;;;;;;;;;;
2020/12/19 06:57:27;;;;;;;2.1;1.4;;;;;;;;;;;;;
2020/12/19 06:59:52;;;;;;;4.2;1.4;;;;;;;;;;;;;
2020/12/19 07:02:17;;;;;;;4.3;2.9;;;;;;;;;;;;;
2020/12/19 07:04:42;;;;;;;9.9;4.2;;;;;;;;;;;;;
2020/12/19 07:07:07;;;;;;;10.3;4.6;;;;;;;;;;;;;
2020/12/19 07:09:33;;;;;;;5;2.8;;;;;;;;;;;;;
2020/12/19 07:11:57;;;;;;;4.9;2.8;;;;;;;;;;;;;
2020/12/19 07:14:22;;;;;;;2.7;1.6;;;;;;;;;;;;;
2020/12/19 07:16:48;;;;;;;5.1;2.4;;;;;;;;;;;;;
2020/12/19 07:19:13;;;;;;;2.5;1.8;;;;;;;;;;;;;
2020/12/19 07:21:38;;;;;;;14.9;3.6;;;;;;;;;;;;;
2020/12/19 07:24:03;;;;;;;12.5;2.5;;;;;;;;;;;;;
2020/12/19 07:26:28;;;;;;;5.2;2.9;;;;;;;;;;;;;
2020/12/19 07:28:53;;;;;;;7.6;4;;;;;;;;;;;;;
2020/12/19 07:31:18;;;;;;;2;1.5;;;;;;;;;;;;;
2020/12/19 07:33:43;;;;;;;5.1;3.1;;;;;;;;;;;;;
2020/12/19 07:36:08;;;;;;;9.3;4.6;;;;;;;;;;;;;
2020/12/19 07:38:34;;;;;;;7.9;3.9;;;;;;;;;;;;;
2020/12/19 07:40:59;;;;;;;3.4;2.3;;;;;;;;;;;;;
2020/12/19 07:43:24;;;;;;;14.6;7.6;;;;;;;;;;;;;
2020/12/19 07:45:50;;;;;;;8.5;3.4;;;;;;;;;;;;;
2020/12/19 07:48:15;;;;;;;6.5;3.9;;;;;;;;;;;;;
2020/12/19 07:50:40;;;;;;;2.7;2;;;;;;;;;;;;;
2020/12/19 07:53:07;;;;;;;6.6;3.4;;;;;;;;;;;;;
2020/12/19 07:55:32;;;;;;;6;3.3;;;;;;;;;;;;;
2020/12/19 07:57:57;;;;;;;8.3;3.9;;;;;;;;;;;;;
2020/12/19 08:00:22;;;;;;;3.3;2.3;;;;;;;;;;;;;
2020/12/19 08:02:47;;;;;;;21.1;10;;;;;;;;;;;;;
2020/12/19 08:05:12;;;;;;;7.1;4.1;;;;;;;;;;;;;
2020/12/19 08:07:37;;;;;;;9.2;3.8;;;;;;;;;;;;;
2020/12/19 08:10:03;;;;;;;9.3;4;;;;;;;;;;;;;
2020/12/19 08:12:28;;;;;;;9;4.2;;;;;;;;;;;;;
2020/12/19 08:14:54;;;;;;;15.1;6.8;;;;;;;;;;;;;
2020/12/19 08:17:19;;;;;;;11.7;5.9;;;;;;;;;;;;;
2020/12/19 08:19:44;;;;;;;21.9;8.4;;;;;;;;;;;;;
2020/12/19 08:22:09;;;;;;;10.6;5.3;;;;;;;;;;;;;
2020/12/19 08:24:34;;;;;;;5.2;2.6;;;;;;;;;;;;;
2020/12/19 08:27:00;;;;;;;5.7;2.8;;;;;;;;;;;;;
2020/12/19 08:29:25;;;;;;;22.9;11.5;;;;;;;;;;;;;
2020/12/19 08:31:51;;;;;;;13;5.1;;;;;;;;;;;;;
2020/12/19 08:34:16;;;;;;;11;5.2;;;;;;;;;;;;;
2020/12/19 08:36:42;;;;;;;4.3;3.6;;;;;;;;;;;;;
2020/12/19 08:39:08;;;;;;;17.8;5.8;;;;;;;;;;;;;
2020/12/19 08:41:34;;;;;;;19.1;8.8;;;;;;;;;;;;;
2020/12/19 08:43:59;;;;;;;17.9;7.7;;;;;;;;;;;;;
2020/12/19 08:46:25;;;;;;;18.7;8.1;;;;;;;;;;;;;
2020/12/19 08:48:50;;;;;;;11.1;5.5;;;;;;;;;;;;;
2020/12/19 08:51:16;;;;;;;9;4.5;;;;;;;;;;;;;
2020/12/19 08:53:41;;;;;;;14.5;6.1;;;;;;;;;;;;;
2020/12/19 08:56:06;;;;;;;4.8;2.9;;;;;;;;;;;;;
2020/12/19 08:58:31;;;;;;;8.6;1.4;;;;;;;;;;;;;
2020/12/19 09:00:56;;;;;;;2.7;1.6;;;;;;;;;;;;;
2020/12/19 09:03:21;;;;;;;7.1;3.7;;;;;;;;;;;;;
2020/12/19 09:05:46;;;;;;;6.1;2.4;;;;;;;;;;;;;
2020/12/19 09:08:12;;;;;;;7.9;3.6;;;;;;;;;;;;;
2020/12/19 09:10:37;;;;;;;4.7;3.2;;;;;;;;;;;;;
2020/12/19 09:13:02;;;;;;;69.5;34.4;;;;;;;;;;;;;
2020/12/19 09:15:27;;;;;;;3.4;2.2;;;;;;;;;;;;;
2020/12/19 09:17:52;;;;;;;4.7;2.5;;;;;;;;;;;;;
2020/12/19 09:20:17;;;;;;;8.1;3.2;;;;;;;;;;;;;
2020/12/19 09:22:43;;;;;;;4.4;2.3;;;;;;;;;;;;;
2020/12/19 09:25:08;;;;;;;3.2;1.4;;;;;;;;;;;;;
2020/12/19 09:27:33;;;;;;;3.8;2;;;;;;;;;;;;;
2020/12/19 09:29:59;;;;;;;4.1;2.6;;;;;;;;;;;;;
2020/12/19 09:32:23;;;;;;;3;1.6;;;;;;;;;;;;;
2020/12/19 09:34:49;;;;;;;3.1;2;;;;;;;;;;;;;
2020/12/19 09:37:15;;;;;;;3.7;1.7;;;;;;;;;;;;;
2020/12/19 09:39:40;;;;;;;3.1;2.2;;;;;;;;;;;;;
2020/12/19 09:42:06;;;;;;;3.5;2.1;;;;;;;;;;;;;
2020/12/19 09:44:31;;;;;;;1.2;1;;;;;;;;;;;;;
2020/12/19 09:46:57;;;;;;;2.5;2.1;;;;;;;;;;;;;
2020/12/19 09:49:23;;;;;;;4.9;2.2;;;;;;;;;;;;;
2020/12/19 09:51:48;;;;;;;6.3;2.7;;;;;;;;;;;;;
2020/12/19 09:54:14;;;;;;;1.7;1.6;;;;;;;;;;;;;
2020/12/19 09:56:40;;;;;;;2;1.4;;;;;;;;;;;;;
2020/12/19 09:59:05;;;;;;;1.7;1;;;;;;;;;;;;;
2020/12/19 10:01:30;;;;;;;1.3;1.2;;;;;;;;;;;;;
2020/12/19 10:03:57;;;;;;;2.3;1.7;;;;;;;;;;;;;
2020/12/19 10:06:22;;;;;;;2.4;1.4;;;;;;;;;;;;;
2020/12/19 10:08:48;;;;;;;6.9;2.4;;;;;;;;;;;;;
2020/12/19 10:11:13;;;;;;;1.3;1.2;;;;;;;;;;;;;
2020/12/19 10:13:38;;;;;;;3.6;1.8;;;;;;;;;;;;;
2020/12/19 10:16:03;;;;;;;2.3;1.4;;;;;;;;;;;;;
2020/12/19 10:18:28;;;;;;;1.2;1.1;;;;;;;;;;;;;
2020/12/19 10:20:55;;;;;;;2.4;1.3;;;;;;;;;;;;;
2020/12/19 10:23:20;;;;;;;2.8;1.5;;;;;;;;;;;;;
2020/12/19 10:25:45;;;;;;;1.6;0.9;;;;;;;;;;;;;
2020/12/19 10:28:10;;;;;;;2.7;1.8;;;;;;;;;;;;;
2020/12/19 10:30:36;;;;;;;2.3;1;;;;;;;;;;;;;
2020/12/19 10:33:01;;;;;;;2.3;1.2;;;;;;;;;;;;;
2020/12/19 10:35:26;;;;;;;2.6;1.6;;;;;;;;;;;;;
2020/12/19 10:37:51;;;;;;;3.6;1.5;;;;;;;;;;;;;
2020/12/19 10:40:16;;;;;;;2.5;1;;;;;;;;;;;;;
2020/12/19 10:42:42;;;;;;;1.8;1.2;;;;;;;;;;;;;
2020/12/19 10:45:06;;;;;;;7.2;1.7;;;;;;;;;;;;;
2020/12/19 10:47:31;;;;;;;8.3;1.4;;;;;;;;;;;;;
2020/12/19 10:49:57;;;;;;;18.5;1.7;;;;;;;;;;;;;
2020/12/19 10:52:22;;;;;;;1.9;0.8;;;;;;;;;;;;;
2020/12/19 10:54:47;;;;;;;2.3;1.1;;;;;;;;;;;;;
2020/12/19 10:57:12;;;;;;;10.2;1.6;;;;;;;;;;;;;
2020/12/19 10:59:38;;;;;;;2.9;1.8;;;;;;;;;;;;;
2020/12/19 11:02:03;;;;;;;5.5;2.4;;;;;;;;;;;;;
2020/12/19 11:04:29;;;;;;;5.5;1.8;;;;;;;;;;;;;
2020/12/19 11:06:54;;;;;;;3.8;1.6;;;;;;;;;;;;;
2020/12/19 11:09:19;;;;;;;2.6;1.4;;;;;;;;;;;;;
2020/12/19 11:11:44;;;;;;;7.7;1.1;;;;;;;;;;;;;
2020/12/19 11:14:09;;;;;;;1.3;1.1;;;;;;;;;;;;;
2020/12/19 11:16:35;;;;;;;2.5;1.5;;;;;;;;;;;;;
2020/12/19 11:18:59;;;;;;;0.9;0.7;;;;;;;;;;;;;
2020/12/19 11:21:24;;;;;;;1.1;0.7;;;;;;;;;;;;;
2020/12/19 11:23:49;;;;;;;6.3;1.4;;;;;;;;;;;;;
2020/12/19 11:26:14;;;;;;;2.8;1.2;;;;;;;;;;;;;
2020/12/19 11:28:40;;;;;;;2.1;0.8;;;;;;;;;;;;;
2020/12/19 11:31:05;;;;;;;0.6;0.4;;;;;;;;;;;;;
2020/12/19 11:33:30;;;;;;;1.4;1.1;;;;;;;;;;;;;
2020/12/19 11:35:55;;;;;;;5.2;1.9;;;;;;;;;;;;;
2020/12/19 11:38:20;;;;;;;10.2;1.5;;;;;;;;;;;;;
2020/12/19 11:40:46;;;;;;;14.8;1.8;;;;;;;;;;;;;
2020/12/19 11:43:11;;;;;;;4.4;1.3;;;;;;;;;;;;;
2020/12/19 11:45:36;;;;;;;8.6;0.9;;;;;;;;;;;;;
2020/12/19 11:48:01;;;;;;;1.6;0.7;;;;;;;;;;;;;
2020/12/19 11:50:26;;;;;;;2.2;1.1;;;;;;;;;;;;;
2020/12/19 11:52:52;;;;;;;2.2;0.7;;;;;;;;;;;;;
2020/12/19 11:55:18;;;;;;;5.8;1.8;;;;;;;;;;;;;
2020/12/19 11:57:43;;;;;;;2.5;1.5;;;;;;;;;;;;;
2020/12/19 12:00:09;;;;;;;10.2;5.1;;;;;;;;;;;;;
2020/12/19 12:02:34;;;;;;;1.6;1.2;;;;;;;;;;;;;
2020/12/19 12:04:59;;;;;;;4.4;2.5;;;;;;;;;;;;;
2020/12/19 12:07:24;;;;;;;5.3;2.2;;;;;;;;;;;;;
2020/12/19 12:09:49;;;;;;;1.1;1;;;;;;;;;;;;;
2020/12/19 12:12:15;;;;;;;3.8;1.9;;;;;;;;;;;;;
2020/12/19 12:14:40;;;;;;;3.4;1.2;;;;;;;;;;;;;
2020/12/19 12:17:05;;;;;;;1.8;0.7;;;;;;;;;;;;;
2020/12/19 12:19:30;;;;;;;2.8;1;;;;;;;;;;;;;
2020/12/19 12:21:55;;;;;;;2.7;0.8;;;;;;;;;;;;;
2020/12/19 12:24:20;;;;;;;2.9;1;;;;;;;;;;;;;
2020/12/19 12:26:46;;;;;;;1.2;1;;;;;;;;;;;;;
2020/12/19 12:29:11;;;;;;;1.3;1;;;;;;;;;;;;;
2020/12/19 12:31:36;;;;;;;0.8;0.7;;;;;;;;;;;;;
2020/12/19 12:34:01;;;;;;;1.5;0.8;;;;;;;;;;;;;
2020/12/19 12:36:27;;;;;;;0.9;0.7;;;;;;;;;;;;;
2020/12/19 12:38:51;;;;;;;0.8;0.8;;;;;;;;;;;;;
2020/12/19 12:41:16;;;;;;;2.6;1.8;;;;;;;;;;;;;
2020/12/19 12:43:41;;;;;;;1.9;0.5;;;;;;;;;;;;;
2020/12/19 12:46:07;;;;;;;7.9;0.7;;;;;;;;;;;;;
2020/12/19 12:48:32;;;;;;;2.5;1.8;;;;;;;;;;;;;
2020/12/19 12:50:58;;;;;;;2.9;1.6;;;;;;;;;;;;;
2020/12/19 12:53:23;;;;;;;1.5;1;;;;;;;;;;;;;
2020/12/19 12:55:48;;;;;;;8.1;1.8;;;;;;;;;;;;;
2020/12/19 12:58:13;;;;;;;2;1.2;;;;;;;;;;;;;
2020/12/19 13:00:38;;;;;;;1.4;0.7;;;;;;;;;;;;;
2020/12/19 13:03:04;;;;;;;11.4;1.3;;;;;;;;;;;;;
2020/12/19 13:05:29;;;;;;;1.1;1;;;;;;;;;;;;;
2020/12/19 13:07:54;;;;;;;1.8;1.2;;;;;;;;;;;;;
2020/12/19 13:10:19;;;;;;;6.9;1.7;;;;;;;;;;;;;
2020/12/19 13:12:44;;;;;;;0.7;0.7;;;;;;;;;;;;;
2020/12/19 13:15:10;;;;;;;1.9;1;;;;;;;;;;;;;
2020/12/19 13:17:35;;;;;;;6.1;0.9;;;;;;;;;;;;;
2020/12/19 13:20:00;;;;;;;2.8;1.3;;;;;;;;;;;;;
2020/12/19 13:22:25;;;;;;;6;3.2;;;;;;;;;;;;;
2020/12/19 13:24:50;;;;;;;1.1;0.7;;;;;;;;;;;;;
2020/12/19 13:27:16;;;;;;;0.7;0.4;;;;;;;;;;;;;
2020/12/19 13:29:41;;;;;;;14.5;5.4;;;;;;;;;;;;;
2020/12/19 13:32:06;;;;;;;3.2;1.5;;;;;;;;;;;;;
2020/12/19 13:34:31;;;;;;;2.3;0.7;;;;;;;;;;;;;
2020/12/19 13:36:56;;;;;;;5.8;2.5;;;;;;;;;;;;;
2020/12/19 13:39:22;;;;;;;1.8;1.4;;;;;;;;;;;;;
2020/12/19 13:41:46;;;;;;;2.4;1.4;;;;;;;;;;;;;
2020/12/19 13:44:11;;;;;;;2.4;1.6;;;;;;;;;;;;;
2020/12/19 13:46:38;;;;;;;2.3;1.6;;;;;;;;;;;;;
2020/12/19 13:49:03;;;;;;;1.6;0.9;;;;;;;;;;;;;
2020/12/19 13:51:29;;;;;;;1.6;0.9;;;;;;;;;;;;;
2020/12/19 13:53:53;;;;;;;1.9;1.2;;;;;;;;;;;;;
2020/12/19 13:56:18;;;;;;;7;1.6;;;;;;;;;;;;;
2020/12/19 13:58:44;;;;;;;2.8;1.8;;;;;;;;;;;;;
2020/12/19 14:01:09;;;;;;;11.7;1.9;;;;;;;;;;;;;
2020/12/19 14:03:34;;;;;;;9.8;2;;;;;;;;;;;;;
2020/12/19 14:05:59;;;;;;;4.1;2.9;;;;;;;;;;;;;
2020/12/19 14:08:24;;;;;;;4.8;1.8;;;;;;;;;;;;;
2020/12/19 14:10:49;;;;;;;3.3;1.5;;;;;;;;;;;;;
2020/12/19 14:13:14;;;;;;;1.7;1.3;;;;;;;;;;;;;
2020/12/19 14:15:39;;;;;;;2.8;1.4;;;;;;;;;;;;;
2020/12/19 14:18:05;;;;;;;3.2;1.9;;;;;;;;;;;;;
2020/12/19 14:20:30;;;;;;;6.2;2.3;;;;;;;;;;;;;
2020/12/19 14:22:55;;;;;;;10.7;3.1;;;;;;;;;;;;;
2020/12/19 14:25:20;;;;;;;4.4;2.8;;;;;;;;;;;;;
2020/12/19 14:27:46;;;;;;;8.3;4.1;;;;;;;;;;;;;
2020/12/19 14:30:12;;;;;;;5.3;3.4;;;;;;;;;;;;;
2020/12/19 14:32:37;;;;;;;25.8;4.9;;;;;;;;;;;;;
2020/12/19 14:35:02;;;;;;;10.8;3.8;;;;;;;;;;;;;
2020/12/19 14:37:27;;;;;;;6.5;3.6;;;;;;;;;;;;;
2020/12/19 14:39:53;;;;;;;6.7;4.3;;;;;;;;;;;;;
2020/12/19 14:42:18;;;;;;;18.6;5.4;;;;;;;;;;;;;
2020/12/19 14:44:43;;;;;;;12.5;7.1;;;;;;;;;;;;;
2020/12/19 14:47:09;;;;;;;9.9;5.6;;;;;;;;;;;;;
2020/12/19 14:49:33;;;;;;;17.2;7.2;;;;;;;;;;;;;
2020/12/19 14:51:59;;;;;;;11;5.8;;;;;;;;;;;;;
2020/12/19 14:54:24;;;;;;;15.2;6.3;;;;;;;;;;;;;
2020/12/19 14:56:49;;;;;;;6.1;4.4;;;;;;;;;;;;;
2020/12/19 14:59:14;;;;;;;9.8;6.2;;;;;;;;;;;;;
2020/12/19 15:01:39;;;;;;;23.6;7.1;;;;;;;;;;;;;
2020/12/19 15:04:04;;;;;;;18;7.1;;;;;;;;;;;;;
2020/12/19 15:06:29;;;;;;;14.6;6.9;;;;;;;;;;;;;
2020/12/19 15:08:55;;;;;;;19.1;8.9;;;;;;;;;;;;;
2020/12/19 15:11:20;;;;;;;16.6;8;;;;;;;;;;;;;
2020/12/19 15:13:45;;;;;;;15.9;8.4;;;;;;;;;;;;;
2020/12/19 15:16:10;;;;;;;21;10.3;;;;;;;;;;;;;
2020/12/19 15:18:35;;;;;;;14.1;4.8;;;;;;;;;;;;;
2020/12/19 15:21:00;;;;;;;15.2;7.7;;;;;;;;;;;;;
2020/12/19 15:23:25;;;;;;;15;8.6;;;;;;;;;;;;;
2020/12/19 15:25:50;;;;;;;17.8;8.4;;;;;;;;;;;;;
2020/12/19 15:28:16;;;;;;;14.9;7.9;;;;;;;;;;;;;
2020/12/19 15:30:41;;;;;;;11.2;7.3;;;;;;;;;;;;;
2020/12/19 15:33:07;;;;;;;17.5;7;;;;;;;;;;;;;
2020/12/19 15:35:33;;;;;;;13.3;8.1;;;;;;;;;;;;;
2020/12/19 15:37:58;;;;;;;18.2;7.7;;;;;;;;;;;;;
2020/12/19 15:40:24;;;;;;;15.9;8.3;;;;;;;;;;;;;
2020/12/19 15:42:49;;;;;;;14.7;8.4;;;;;;;;;;;;;
2020/12/19 15:45:14;;;;;;;17.4;9.2;;;;;;;;;;;;;
2020/12/19 15:47:39;;;;;;;25.9;10.4;;;;;;;;;;;;;
2020/12/19 15:50:04;;;;;;;16;10.3;;;;;;;;;;;;;
2020/12/19 15:52:29;;;;;;;20.4;12;;;;;;;;;;;;;
2020/12/19 15:54:54;;;;;;;23.5;11;;;;;;;;;;;;;
2020/12/19 15:57:20;;;;;;;23;11.9;;;;;;;;;;;;;
2020/12/19 15:59:45;;;;;;;21.2;10.6;;;;;;;;;;;;;
2020/12/19 16:02:10;;;;;;;23.2;11.2;;;;;;;;;;;;;
2020/12/19 16:04:35;;;;;;;23.5;9.6;;;;;;;;;;;;;
2020/12/19 16:07:00;;;;;;;23;10.6;;;;;;;;;;;;;
2020/12/19 16:09:25;;;;;;;23.3;11.9;;;;;;;;;;;;;
2020/12/19 16:11:53;;;;;;;26.9;12.9;;;;;;;;;;;;;
2020/12/19 16:14:16;;;;;;;21.3;11.3;;;;;;;;;;;;;
2020/12/19 16:16:41;;;;;;;24.7;12.4;;;;;;;;;;;;;
2020/12/19 16:19:07;;;;;;;21.1;11.7;;;;;;;;;;;;;
2020/12/19 16:21:32;;;;;;;27.1;12.8;;;;;;;;;;;;;
2020/12/19 16:23:58;;;;;;;21.6;12.4;;;;;;;;;;;;;
2020/12/19 16:26:23;;;;;;;27.5;12.8;;;;;;;;;;;;;
2020/12/19 16:28:48;;;;;;;23.3;10.8;;;;;;;;;;;;;
2020/12/19 16:31:13;;;;;;;23.4;11.2;;;;;;;;;;;;;
2020/12/19 16:33:38;;;;;;;22.5;11.2;;;;;;;;;;;;;
2020/12/19 16:36:03;;;;;;;25.4;12.8;;;;;;;;;;;;;
2020/12/19 16:38:28;;;;;;;29.1;12.7;;;;;;;;;;;;;
2020/12/19 16:40:55;;;;;;;25;12.2;;;;;;;;;;;;;
2020/12/19 16:43:20;;;;;;;30;12.8;;;;;;;;;;;;;
2020/12/19 16:45:45;;;;;;;24.9;13;;;;;;;;;;;;;
2020/12/19 16:48:10;;;;;;;34.3;14.5;;;;;;;;;;;;;
2020/12/19 16:50:36;;;;;;;27.8;12.8;;;;;;;;;;;;;
2020/12/19 16:53:01;;;;;;;29;14.5;;;;;;;;;;;;;
2020/12/19 16:55:26;;;;;;;23.4;12.6;;;;;;;;;;;;;
2020/12/19 16:57:51;;;;;;;32.5;12.8;;;;;;;;;;;;;
2020/12/19 17:00:16;;;;;;;23.8;11.4;;;;;;;;;;;;;
2020/12/19 17:02:41;;;;;;;34.8;14.1;;;;;;;;;;;;;
2020/12/19 17:05:06;;;;;;;38.3;17.7;;;;;;;;;;;;;
2020/12/19 17:07:31;;;;;;;25.2;12.4;;;;;;;;;;;;;
2020/12/19 17:09:56;;;;;;;23.4;11.8;;;;;;;;;;;;;
2020/12/19 17:12:23;;;;;;;28.2;12.1;;;;;;;;;;;;;
2020/12/19 17:14:48;;;;;;;21.1;10.5;;;;;;;;;;;;;
2020/12/19 17:17:13;;;;;;;20.3;11.4;;;;;;;;;;;;;
2020/12/19 17:19:38;;;;;;;22.6;11.7;;;;;;;;;;;;;
2020/12/19 17:22:05;;;;;;;22.2;11.7;;;;;;;;;;;;;
2020/12/19 17:24:28;;;;;;;25.8;13.1;;;;;;;;;;;;;
2020/12/19 17:26:53;;;;;;;25.3;13.3;;;;;;;;;;;;;
2020/12/19 17:29:19;;;;;;;24.2;12.6;;;;;;;;;;;;;
2020/12/19 17:31:44;;;;;;;19.3;11.3;;;;;;;;;;;;;
2020/12/19 17:34:09;;;;;;;33.4;13.4;;;;;;;;;;;;;
2020/12/19 17:36:34;;;;;;;32;15;;;;;;;;;;;;;
2020/12/19 17:38:59;;;;;;;34.4;16;;;;;;;;;;;;;
2020/12/19 17:41:24;;;;;;;32;15.7;;;;;;;;;;;;;
2020/12/19 17:43:50;;;;;;;43.8;16.6;;;;;;;;;;;;;
2020/12/19 17:46:17;;;;;;;31.5;13;;;;;;;;;;;;;
2020/12/19 17:48:41;;;;;;;23.7;12.8;;;;;;;;;;;;;
2020/12/19 17:51:06;;;;;;;37.3;16.8;;;;;;;;;;;;;
2020/12/19 17:53:31;;;;;;;40.1;15.2;;;;;;;;;;;;;
2020/12/19 17:55:57;;;;;;;24;12.7;;;;;;;;;;;;;
2020/12/19 17:58:22;;;;;;;19.3;10.7;;;;;;;;;;;;;
2020/12/19 18:00:48;;;;;;;28.1;12.7;;;;;;;;;;;;;
2020/12/19 18:03:12;;;;;;;18.3;9.8;;;;;;;;;;;;;
2020/12/19 18:05:37;;;;;;;16.1;9.2;;;;;;;;;;;;;
2020/12/19 18:08:02;;;;;;;19.9;9.7;;;;;;;;;;;;;
2020/12/19 18:10:27;;;;;;;10.6;6.1;;;;;;;;;;;;;
2020/12/19 18:12:53;;;;;;;15.1;8;;;;;;;;;;;;;
2020/12/19 18:15:18;;;;;;;26.3;10.4;;;;;;;;;;;;;
2020/12/19 18:17:43;;;;;;;20.8;10.5;;;;;;;;;;;;;
2020/12/19 18:20:08;;;;;;;19.2;10.3;;;;;;;;;;;;;
2020/12/19 18:22:33;;;;;;;14.2;7.8;;;;;;;;;;;;;
2020/12/19 18:24:58;;;;;;;24;11.7;;;;;;;;;;;;;
2020/12/19 18:27:23;;;;;;;18.3;11.5;;;;;;;;;;;;;
2020/12/19 18:29:48;;;;;;;25.7;11.9;;;;;;;;;;;;;
2020/12/19 18:32:14;;;;;;;18.8;9.6;;;;;;;;;;;;;
2020/12/19 18:34:39;;;;;;;18.7;9.3;;;;;;;;;;;;;
2020/12/19 18:37:04;;;;;;;14.2;7.1;;;;;;;;;;;;;
2020/12/19 18:39:29;;;;;;;16.5;8.6;;;;;;;;;;;;;
2020/12/19 18:41:56;;;;;;;26.7;11;;;;;;;;;;;;;
2020/12/19 18:44:21;;;;;;;18.8;9;;;;;;;;;;;;;
2020/12/19 18:46:46;;;;;;;14.5;7.3;;;;;;;;;;;;;
2020/12/19 18:49:12;;;;;;;18.1;9.1;;;;;;;;;;;;;
2020/12/19 18:51:37;;;;;;;22.6;13;;;;;;;;;;;;;
2020/12/19 18:54:03;;;;;;;23.1;9.9;;;;;;;;;;;;;
2020/12/19 18:56:28;;;;;;;18.4;9.6;;;;;;;;;;;;;
2020/12/19 18:58:53;;;;;;;20.2;8.8;;;;;;;;;;;;;
2020/12/19 19:01:19;;;;;;;23;11.3;;;;;;;;;;;;;
2020/12/19 19:03:44;;;;;;;28;11.4;;;;;;;;;;;;;
2020/12/19 19:06:09;;;;;;;10.6;7.5;;;;;;;;;;;;;
2020/12/19 19:08:34;;;;;;;21.7;12.1;;;;;;;;;;;;;
2020/12/19 19:11:01;;;;;;;30.7;14.8;;;;;;;;;;;;;
2020/12/19 19:13:24;;;;;;;30.1;13.5;;;;;;;;;;;;;
2020/12/19 19:15:50;;;;;;;17.8;8.3;;;;;;;;;;;;;